sensor_id;sensor_type;location;lat;lon;timestamp;P1;durP1;ratioP1;P2;durP2;ratioP2
1076;SDS011;64114;48.726;9.370;2022-11-21T00:01:27;0.83;;;0.53;;
1076;SDS011;64114;48.726;9.370;2022-11-21T00:03:55;2.00;;;0.77;;
1076;SDS011;64114;48.726;9.370;2022-11-21T00:06:24;3.40;;;0.90;;
1076;SDS011;64114;48.726;9.370;2022-11-21T00:08:52;1.87;;;1.00;;
1076;SDS011;64114;48.726;9.370;2022-11-21T00:11:22;0.63;;;0.63;;
1076;SDS011;64114;48.726;9.370;2022-11-21T00:13:50;1.00;;;0.60;;
1076;SDS011;64114;48.726;9.370;2022-11-21T00:16:19;1.07;;;0.70;;
1076;SDS011;64114;48.726;9.370;2022-11-21T00:18:47;1.10;;;0.80;;
1076;SDS011;64114;48.726;9.370;2022-11-21T00:21:16;0.70;;;0.50;;
1076;SDS011;64114;48.726;9.370;2022-11-21T00:23:45;0.60;;;0.50;;
1076;SDS011;64114;48.726;9.370;2022-11-21T00:26:14;0.57;;;0.53;;
1076;SDS011;64114;48.726;9.370;2022-11-21T00:28:43;1.53;;;0.50;;
1076;SDS011;64114;48.726;9.370;2022-11-21T00:31:17;0.70;;;0.60;;
1076;SDS011;64114;48.726;9.370;2022-11-21T00:33:47;2.13;;;0.50;;
1076;SDS011;64114;48.726;9.370;2022-11-21T00:36:15;1.17;;;0.43;;
1076;SDS011;64114;48.726;9.370;2022-11-21T00:38:43;2.00;;;0.70;;
1076;SDS011;64114;48.726;9.370;2022-11-21T00:41:10;0.50;;;0.40;;
1076;SDS011;64114;48.726;9.370;2022-11-21T00:43:38;0.50;;;0.33;;
1076;SDS011;64114;48.726;9.370;2022-11-21T00:46:06;0.50;;;0.50;;
1076;SDS011;64114;48.726;9.370;2022-11-21T00:48:34;0.60;;;0.40;;
1076;SDS011;64114;48.726;9.370;2022-11-21T00:51:04;0.50;;;0.40;;
1076;SDS011;64114;48.726;9.370;2022-11-21T00:53:32;0.67;;;0.40;;
1076;SDS011;64114;48.726;9.370;2022-11-21T00:56:00;1.43;;;0.60;;
1076;SDS011;64114;48.726;9.370;2022-11-21T00:58:28;1.33;;;0.60;;
1076;SDS011;64114;48.726;9.370;2022-11-21T01:01:02;0.50;;;0.40;;
1076;SDS011;64114;48.726;9.370;2022-11-21T01:03:32;0.70;;;0.57;;
1076;SDS011;64114;48.726;9.370;2022-11-21T01:06:02;0.80;;;0.50;;
1076;SDS011;64114;48.726;9.370;2022-11-21T01:08:34;0.50;;;0.50;;
1076;SDS011;64114;48.726;9.370;2022-11-21T01:11:03;0.60;;;0.60;;
1076;SDS011;64114;48.726;9.370;2022-11-21T01:13:32;1.03;;;0.57;;
1076;SDS011;64114;48.726;9.370;2022-11-21T01:16:02;0.60;;;0.50;;
1076;SDS011;64114;48.726;9.370;2022-11-21T01:18:31;0.63;;;0.40;;
1076;SDS011;64114;48.726;9.370;2022-11-21T01:20:59;1.43;;;0.90;;
1076;SDS011;64114;48.726;9.370;2022-11-21T01:23:28;1.53;;;0.40;;
1076;SDS011;64114;48.726;9.370;2022-11-21T01:25:59;1.37;;;0.50;;
1076;SDS011;64114;48.726;9.370;2022-11-21T01:28:29;1.40;;;0.77;;
1076;SDS011;64114;48.726;9.370;2022-11-21T01:31:01;0.93;;;0.50;;
1076;SDS011;64114;48.726;9.370;2022-11-21T01:33:30;0.67;;;0.40;;
1076;SDS011;64114;48.726;9.370;2022-11-21T01:36:04;0.83;;;0.67;;
1076;SDS011;64114;48.726;9.370;2022-11-21T01:38:42;1.73;;;0.70;;
1076;SDS011;64114;48.726;9.370;2022-11-21T01:41:12;3.40;;;1.33;;
1076;SDS011;64114;48.726;9.370;2022-11-21T01:43:42;0.87;;;0.53;;
1076;SDS011;64114;48.726;9.370;2022-11-21T01:46:12;0.87;;;0.50;;
1076;SDS011;64114;48.726;9.370;2022-11-21T01:48:42;1.13;;;0.77;;
1076;SDS011;64114;48.726;9.370;2022-11-21T01:51:16;1.33;;;0.83;;
1076;SDS011;64114;48.726;9.370;2022-11-21T01:53:51;0.70;;;0.67;;
1076;SDS011;64114;48.726;9.370;2022-11-21T01:56:22;1.13;;;0.90;;
1076;SDS011;64114;48.726;9.370;2022-11-21T01:58:52;1.50;;;0.80;;
1076;SDS011;64114;48.726;9.370;2022-11-21T02:01:23;1.17;;;1.07;;
1076;SDS011;64114;48.726;9.370;2022-11-21T02:03:51;3.90;;;2.33;;
1076;SDS011;64114;48.726;9.370;2022-11-21T02:06:23;1.80;;;0.70;;
1076;SDS011;64114;48.726;9.370;2022-11-21T02:08:53;1.53;;;0.60;;
1076;SDS011;64114;48.726;9.370;2022-11-21T02:11:26;3.80;;;0.80;;
1076;SDS011;64114;48.726;9.370;2022-11-21T02:13:59;0.73;;;0.67;;
1076;SDS011;64114;48.726;9.370;2022-11-21T02:16:27;1.13;;;0.70;;
1076;SDS011;64114;48.726;9.370;2022-11-21T02:18:56;0.77;;;0.77;;
1076;SDS011;64114;48.726;9.370;2022-11-21T02:21:27;1.00;;;0.90;;
1076;SDS011;64114;48.726;9.370;2022-11-21T02:24:05;1.43;;;0.80;;
1076;SDS011;64114;48.726;9.370;2022-11-21T02:26:39;2.20;;;0.90;;
1076;SDS011;64114;48.726;9.370;2022-11-21T02:29:08;1.17;;;0.50;;
1076;SDS011;64114;48.726;9.370;2022-11-21T02:31:36;0.83;;;0.70;;
1076;SDS011;64114;48.726;9.370;2022-11-21T02:34:04;1.77;;;0.70;;
1076;SDS011;64114;48.726;9.370;2022-11-21T02:36:34;1.17;;;0.80;;
1076;SDS011;64114;48.726;9.370;2022-11-21T02:39:06;1.90;;;0.87;;
1076;SDS011;64114;48.726;9.370;2022-11-21T02:41:38;3.00;;;0.73;;
1076;SDS011;64114;48.726;9.370;2022-11-21T02:44:13;2.60;;;0.80;;
1076;SDS011;64114;48.726;9.370;2022-11-21T02:46:46;1.30;;;0.80;;
1076;SDS011;64114;48.726;9.370;2022-11-21T02:49:18;1.07;;;0.70;;
1076;SDS011;64114;48.726;9.370;2022-11-21T02:51:53;1.80;;;0.80;;
1076;SDS011;64114;48.726;9.370;2022-11-21T02:54:22;1.73;;;0.90;;
1076;SDS011;64114;48.726;9.370;2022-11-21T02:56:51;2.57;;;0.70;;
1076;SDS011;64114;48.726;9.370;2022-11-21T02:59:19;3.40;;;1.20;;
1076;SDS011;64114;48.726;9.370;2022-11-21T03:01:47;1.80;;;0.67;;
1076;SDS011;64114;48.726;9.370;2022-11-21T03:04:15;2.70;;;1.33;;
1076;SDS011;64114;48.726;9.370;2022-11-21T03:06:43;4.20;;;1.20;;
1076;SDS011;64114;48.726;9.370;2022-11-21T03:09:11;1.63;;;0.97;;
1076;SDS011;64114;48.726;9.370;2022-11-21T03:11:39;3.70;;;1.47;;
1076;SDS011;64114;48.726;9.370;2022-11-21T03:14:08;3.03;;;1.20;;
1076;SDS011;64114;48.726;9.370;2022-11-21T03:16:36;1.00;;;0.60;;
1076;SDS011;64114;48.726;9.370;2022-11-21T03:19:04;0.97;;;0.80;;
1076;SDS011;64114;48.726;9.370;2022-11-21T03:21:32;2.77;;;0.70;;
1076;SDS011;64114;48.726;9.370;2022-11-21T03:24:00;1.13;;;0.53;;
1076;SDS011;64114;48.726;9.370;2022-11-21T03:26:28;1.90;;;0.70;;
1076;SDS011;64114;48.726;9.370;2022-11-21T03:28:56;0.83;;;0.63;;
1076;SDS011;64114;48.726;9.370;2022-11-21T03:31:25;2.80;;;0.70;;
1076;SDS011;64114;48.726;9.370;2022-11-21T03:33:53;2.43;;;1.30;;
1076;SDS011;64114;48.726;9.370;2022-11-21T03:36:21;2.10;;;0.90;;
1076;SDS011;64114;48.726;9.370;2022-11-21T03:38:49;0.50;;;0.50;;
1076;SDS011;64114;48.726;9.370;2022-11-21T03:41:17;2.43;;;0.70;;
1076;SDS011;64114;48.726;9.370;2022-11-21T03:43:58;1.77;;;1.00;;
1076;SDS011;64114;48.726;9.370;2022-11-21T03:46:28;1.23;;;0.80;;
1076;SDS011;64114;48.726;9.370;2022-11-21T03:48:57;1.43;;;0.60;;
1076;SDS011;64114;48.726;9.370;2022-11-21T03:51:25;1.80;;;0.77;;
1076;SDS011;64114;48.726;9.370;2022-11-21T03:53:54;2.90;;;0.87;;
1076;SDS011;64114;48.726;9.370;2022-11-21T03:56:22;3.33;;;0.80;;
1076;SDS011;64114;48.726;9.370;2022-11-21T03:58:51;1.10;;;1.10;;
1076;SDS011;64114;48.726;9.370;2022-11-21T04:01:19;1.30;;;1.00;;
1076;SDS011;64114;48.726;9.370;2022-11-21T04:03:49;2.40;;;0.83;;
1076;SDS011;64114;48.726;9.370;2022-11-21T04:06:18;0.80;;;0.70;;
1076;SDS011;64114;48.726;9.370;2022-11-21T04:08:49;1.33;;;0.80;;
1076;SDS011;64114;48.726;9.370;2022-11-21T04:11:17;2.60;;;0.80;;
1076;SDS011;64114;48.726;9.370;2022-11-21T04:13:47;2.80;;;1.20;;
1076;SDS011;64114;48.726;9.370;2022-11-21T04:16:15;1.87;;;0.87;;
1076;SDS011;64114;48.726;9.370;2022-11-21T04:18:43;2.30;;;1.23;;
1076;SDS011;64114;48.726;9.370;2022-11-21T04:21:12;1.10;;;0.60;;
1076;SDS011;64114;48.726;9.370;2022-11-21T04:23:40;8.10;;;1.00;;
1076;SDS011;64114;48.726;9.370;2022-11-21T04:26:08;1.10;;;0.53;;
1076;SDS011;64114;48.726;9.370;2022-11-21T04:28:36;2.30;;;0.70;;
1076;SDS011;64114;48.726;9.370;2022-11-21T04:31:04;0.50;;;0.50;;
1076;SDS011;64114;48.726;9.370;2022-11-21T04:33:36;1.00;;;0.70;;
1076;SDS011;64114;48.726;9.370;2022-11-21T04:36:04;1.50;;;0.73;;
1076;SDS011;64114;48.726;9.370;2022-11-21T04:38:34;1.20;;;0.60;;
1076;SDS011;64114;48.726;9.370;2022-11-21T04:41:02;2.03;;;1.00;;
1076;SDS011;64114;48.726;9.370;2022-11-21T04:43:30;2.50;;;1.00;;
1076;SDS011;64114;48.726;9.370;2022-11-21T04:45:59;4.00;;;0.90;;
1076;SDS011;64114;48.726;9.370;2022-11-21T04:48:26;1.33;;;0.70;;
1076;SDS011;64114;48.726;9.370;2022-11-21T04:50:54;3.33;;;1.00;;
1076;SDS011;64114;48.726;9.370;2022-11-21T04:53:22;1.43;;;0.60;;
1076;SDS011;64114;48.726;9.370;2022-11-21T04:55:52;1.03;;;0.70;;
1076;SDS011;64114;48.726;9.370;2022-11-21T04:58:19;2.23;;;0.67;;
1076;SDS011;64114;48.726;9.370;2022-11-21T05:00:48;1.53;;;0.60;;
1076;SDS011;64114;48.726;9.370;2022-11-21T05:03:16;1.27;;;0.70;;
1076;SDS011;64114;48.726;9.370;2022-11-21T05:05:43;1.77;;;0.73;;
1076;SDS011;64114;48.726;9.370;2022-11-21T05:08:11;1.10;;;0.63;;
1076;SDS011;64114;48.726;9.370;2022-11-21T05:10:39;2.00;;;0.80;;
1076;SDS011;64114;48.726;9.370;2022-11-21T05:13:22;0.73;;;0.63;;
1076;SDS011;64114;48.726;9.370;2022-11-21T05:15:55;0.67;;;0.60;;
1076;SDS011;64114;48.726;9.370;2022-11-21T05:18:23;1.30;;;0.83;;
1076;SDS011;64114;48.726;9.370;2022-11-21T05:20:52;0.60;;;0.60;;
1076;SDS011;64114;48.726;9.370;2022-11-21T05:23:19;3.07;;;1.17;;
1076;SDS011;64114;48.726;9.370;2022-11-21T05:25:48;1.20;;;0.90;;
1076;SDS011;64114;48.726;9.370;2022-11-21T05:28:16;1.27;;;0.97;;
1076;SDS011;64114;48.726;9.370;2022-11-21T05:30:45;1.47;;;0.70;;
1076;SDS011;64114;48.726;9.370;2022-11-21T05:33:13;0.90;;;0.80;;
1076;SDS011;64114;48.726;9.370;2022-11-21T05:35:41;0.80;;;0.70;;
1076;SDS011;64114;48.726;9.370;2022-11-21T05:38:09;0.70;;;0.70;;
1076;SDS011;64114;48.726;9.370;2022-11-21T05:40:38;0.80;;;0.67;;
1076;SDS011;64114;48.726;9.370;2022-11-21T05:43:06;0.83;;;0.80;;
1076;SDS011;64114;48.726;9.370;2022-11-21T05:45:54;1.50;;;0.80;;
1076;SDS011;64114;48.726;9.370;2022-11-21T05:48:22;1.47;;;1.03;;
1076;SDS011;64114;48.726;9.370;2022-11-21T05:50:50;1.30;;;0.70;;
1076;SDS011;64114;48.726;9.370;2022-11-21T05:53:18;0.97;;;0.77;;
1076;SDS011;64114;48.726;9.370;2022-11-21T05:55:46;1.00;;;0.60;;
1076;SDS011;64114;48.726;9.370;2022-11-21T05:58:14;1.40;;;0.83;;
1076;SDS011;64114;48.726;9.370;2022-11-21T06:00:43;1.20;;;1.10;;
1076;SDS011;64114;48.726;9.370;2022-11-21T06:03:12;1.17;;;0.70;;
1076;SDS011;64114;48.726;9.370;2022-11-21T06:05:57;2.00;;;1.00;;
1076;SDS011;64114;48.726;9.370;2022-11-21T06:08:26;1.80;;;0.67;;
1076;SDS011;64114;48.726;9.370;2022-11-21T06:10:56;1.00;;;0.90;;
1076;SDS011;64114;48.726;9.370;2022-11-21T06:13:23;1.73;;;0.80;;
1076;SDS011;64114;48.726;9.370;2022-11-21T06:15:52;0.63;;;0.60;;
1076;SDS011;64114;48.726;9.370;2022-11-21T06:18:23;1.40;;;0.97;;
1076;SDS011;64114;48.726;9.370;2022-11-21T06:20:52;1.60;;;0.90;;
1076;SDS011;64114;48.726;9.370;2022-11-21T06:23:19;1.23;;;0.70;;
1076;SDS011;64114;48.726;9.370;2022-11-21T06:25:51;1.33;;;0.93;;
1076;SDS011;64114;48.726;9.370;2022-11-21T06:28:23;1.73;;;0.80;;
1076;SDS011;64114;48.726;9.370;2022-11-21T06:30:51;2.10;;;0.60;;
1076;SDS011;64114;48.726;9.370;2022-11-21T06:33:20;1.17;;;0.70;;
1076;SDS011;64114;48.726;9.370;2022-11-21T06:35:49;0.87;;;0.77;;
1076;SDS011;64114;48.726;9.370;2022-11-21T06:38:18;0.70;;;0.60;;
1076;SDS011;64114;48.726;9.370;2022-11-21T06:40:45;0.97;;;0.63;;
1076;SDS011;64114;48.726;9.370;2022-11-21T06:43:13;0.90;;;0.80;;
1076;SDS011;64114;48.726;9.370;2022-11-21T06:45:41;2.60;;;1.83;;
1076;SDS011;64114;48.726;9.370;2022-11-21T06:48:09;1.40;;;1.07;;
1076;SDS011;64114;48.726;9.370;2022-11-21T06:50:37;0.83;;;0.83;;
1076;SDS011;64114;48.726;9.370;2022-11-21T06:53:06;0.63;;;0.53;;
1076;SDS011;64114;48.726;9.370;2022-11-21T06:55:34;1.03;;;1.00;;
1076;SDS011;64114;48.726;9.370;2022-11-21T06:58:02;1.90;;;0.97;;
1076;SDS011;64114;48.726;9.370;2022-11-21T07:00:30;3.13;;;1.17;;
1076;SDS011;64114;48.726;9.370;2022-11-21T07:02:58;1.17;;;0.60;;
1076;SDS011;64114;48.726;9.370;2022-11-21T07:05:28;1.00;;;0.83;;
1076;SDS011;64114;48.726;9.370;2022-11-21T07:07:57;1.20;;;0.60;;
1076;SDS011;64114;48.726;9.370;2022-11-21T07:10:27;1.83;;;1.07;;
1076;SDS011;64114;48.726;9.370;2022-11-21T07:12:56;0.90;;;0.80;;
1076;SDS011;64114;48.726;9.370;2022-11-21T07:15:42;0.90;;;0.70;;
1076;SDS011;64114;48.726;9.370;2022-11-21T07:18:10;1.47;;;1.17;;
1076;SDS011;64114;48.726;9.370;2022-11-21T07:20:38;1.00;;;0.70;;
1076;SDS011;64114;48.726;9.370;2022-11-21T07:23:07;0.90;;;0.63;;
1076;SDS011;64114;48.726;9.370;2022-11-21T07:25:36;0.77;;;0.60;;
1076;SDS011;64114;48.726;9.370;2022-11-21T07:28:06;2.00;;;0.90;;
1076;SDS011;64114;48.726;9.370;2022-11-21T07:30:36;0.80;;;0.70;;
1076;SDS011;64114;48.726;9.370;2022-11-21T07:33:05;0.87;;;0.77;;
1076;SDS011;64114;48.726;9.370;2022-11-21T07:35:35;1.43;;;0.80;;
1076;SDS011;64114;48.726;9.370;2022-11-21T07:38:02;1.60;;;1.33;;
1076;SDS011;64114;48.726;9.370;2022-11-21T07:40:30;1.37;;;1.07;;
1076;SDS011;64114;48.726;9.370;2022-11-21T07:43:02;5.43;;;3.43;;
1076;SDS011;64114;48.726;9.370;2022-11-21T07:45:36;7.07;;;5.03;;
1076;SDS011;64114;48.726;9.370;2022-11-21T07:48:05;5.70;;;4.70;;
1076;SDS011;64114;48.726;9.370;2022-11-21T07:50:34;3.17;;;3.00;;
1076;SDS011;64114;48.726;9.370;2022-11-21T07:53:03;1.50;;;1.27;;
1076;SDS011;64114;48.726;9.370;2022-11-21T07:55:33;1.17;;;0.90;;
1076;SDS011;64114;48.726;9.370;2022-11-21T07:58:07;1.27;;;0.97;;
1076;SDS011;64114;48.726;9.370;2022-11-21T08:00:38;1.30;;;0.93;;
1076;SDS011;64114;48.726;9.370;2022-11-21T08:03:08;0.93;;;0.63;;
1076;SDS011;64114;48.726;9.370;2022-11-21T08:05:38;2.00;;;0.80;;
1076;SDS011;64114;48.726;9.370;2022-11-21T08:08:07;1.50;;;1.20;;
1076;SDS011;64114;48.726;9.370;2022-11-21T08:10:35;1.27;;;1.20;;
1076;SDS011;64114;48.726;9.370;2022-11-21T08:13:04;1.60;;;1.10;;
1076;SDS011;64114;48.726;9.370;2022-11-21T08:15:34;1.17;;;1.07;;
1076;SDS011;64114;48.726;9.370;2022-11-21T08:18:08;1.40;;;0.90;;
1076;SDS011;64114;48.726;9.370;2022-11-21T08:20:36;1.90;;;1.33;;
1076;SDS011;64114;48.726;9.370;2022-11-21T08:23:04;2.70;;;1.00;;
1076;SDS011;64114;48.726;9.370;2022-11-21T08:25:33;1.10;;;1.10;;
1076;SDS011;64114;48.726;9.370;2022-11-21T08:28:03;3.60;;;1.30;;
1076;SDS011;64114;48.726;9.370;2022-11-21T08:30:33;1.00;;;0.90;;
1076;SDS011;64114;48.726;9.370;2022-11-21T08:33:02;0.70;;;0.70;;
1076;SDS011;64114;48.726;9.370;2022-11-21T08:35:30;0.70;;;0.70;;
1076;SDS011;64114;48.726;9.370;2022-11-21T08:37:59;2.60;;;1.20;;
1076;SDS011;64114;48.726;9.370;2022-11-21T08:40:28;1.90;;;1.10;;
1076;SDS011;64114;48.726;9.370;2022-11-21T08:42:58;5.23;;;1.10;;
1076;SDS011;64114;48.726;9.370;2022-11-21T08:45:27;1.53;;;1.17;;
1076;SDS011;64114;48.726;9.370;2022-11-21T08:47:57;3.60;;;1.27;;
1076;SDS011;64114;48.726;9.370;2022-11-21T08:50:25;1.57;;;1.50;;
1076;SDS011;64114;48.726;9.370;2022-11-21T08:52:57;1.77;;;1.43;;
1076;SDS011;64114;48.726;9.370;2022-11-21T08:55:25;2.67;;;1.90;;
1076;SDS011;64114;48.726;9.370;2022-11-21T08:57:53;1.97;;;1.57;;
1076;SDS011;64114;48.726;9.370;2022-11-21T09:00:21;1.90;;;1.53;;
1076;SDS011;64114;48.726;9.370;2022-11-21T09:02:49;2.97;;;1.67;;
1076;SDS011;64114;48.726;9.370;2022-11-21T09:05:18;2.23;;;1.60;;
1076;SDS011;64114;48.726;9.370;2022-11-21T09:07:46;2.00;;;1.50;;
1076;SDS011;64114;48.726;9.370;2022-11-21T09:10:14;2.00;;;1.40;;
1076;SDS011;64114;48.726;9.370;2022-11-21T09:12:42;2.40;;;1.80;;
1076;SDS011;64114;48.726;9.370;2022-11-21T09:15:10;3.77;;;1.93;;
1076;SDS011;64114;48.726;9.370;2022-11-21T09:17:59;1.60;;;1.50;;
1076;SDS011;64114;48.726;9.370;2022-11-21T09:20:32;2.47;;;1.60;;
1076;SDS011;64114;48.726;9.370;2022-11-21T09:23:02;2.50;;;1.40;;
1076;SDS011;64114;48.726;9.370;2022-11-21T09:25:30;4.67;;;1.93;;
1076;SDS011;64114;48.726;9.370;2022-11-21T09:27:58;1.83;;;1.20;;
1076;SDS011;64114;48.726;9.370;2022-11-21T09:30:28;1.47;;;0.80;;
1076;SDS011;64114;48.726;9.370;2022-11-21T09:32:58;1.53;;;0.77;;
1076;SDS011;64114;48.726;9.370;2022-11-21T09:35:27;1.67;;;0.87;;
1076;SDS011;64114;48.726;9.370;2022-11-21T09:37:57;2.10;;;1.13;;
1076;SDS011;64114;48.726;9.370;2022-11-21T09:40:27;1.10;;;0.93;;
1076;SDS011;64114;48.726;9.370;2022-11-21T09:42:59;3.43;;;1.00;;
1076;SDS011;64114;48.726;9.370;2022-11-21T09:45:36;2.00;;;1.03;;
1076;SDS011;64114;48.726;9.370;2022-11-21T09:48:11;1.57;;;0.93;;
1076;SDS011;64114;48.726;9.370;2022-11-21T09:50:42;1.57;;;1.00;;
1076;SDS011;64114;48.726;9.370;2022-11-21T09:53:21;2.13;;;0.80;;
1076;SDS011;64114;48.726;9.370;2022-11-21T09:55:54;2.80;;;1.17;;
1076;SDS011;64114;48.726;9.370;2022-11-21T09:58:27;3.53;;;0.90;;
1076;SDS011;64114;48.726;9.370;2022-11-21T10:00:58;1.73;;;1.17;;
1076;SDS011;64114;48.726;9.370;2022-11-21T10:03:28;3.43;;;1.43;;
1076;SDS011;64114;48.726;9.370;2022-11-21T10:06:00;4.03;;;1.10;;
1076;SDS011;64114;48.726;9.370;2022-11-21T10:08:34;4.07;;;1.33;;
1076;SDS011;64114;48.726;9.370;2022-11-21T10:11:11;3.33;;;1.60;;
1076;SDS011;64114;48.726;9.370;2022-11-21T10:13:53;2.40;;;1.60;;
1076;SDS011;64114;48.726;9.370;2022-11-21T10:16:32;2.30;;;1.30;;
1076;SDS011;64114;48.726;9.370;2022-11-21T10:19:12;4.10;;;1.73;;
1076;SDS011;64114;48.726;9.370;2022-11-21T10:24:47;2.67;;;0.80;;
1076;SDS011;64114;48.726;9.370;2022-11-21T10:27:25;2.93;;;1.10;;
1076;SDS011;64114;48.726;9.370;2022-11-21T10:29:59;1.53;;;1.10;;
1076;SDS011;64114;48.726;9.370;2022-11-21T10:32:30;1.70;;;0.70;;
1076;SDS011;64114;48.726;9.370;2022-11-21T10:35:10;1.37;;;0.70;;
1076;SDS011;64114;48.726;9.370;2022-11-21T10:37:44;2.10;;;0.77;;
1076;SDS011;64114;48.726;9.370;2022-11-21T10:40:22;1.37;;;0.83;;
1076;SDS011;64114;48.726;9.370;2022-11-21T10:42:59;3.87;;;0.90;;
1076;SDS011;64114;48.726;9.370;2022-11-21T10:45:51;3.23;;;0.90;;
1076;SDS011;64114;48.726;9.370;2022-11-21T10:48:19;2.57;;;0.80;;
1076;SDS011;64114;48.726;9.370;2022-11-21T10:50:55;1.00;;;0.70;;
1076;SDS011;64114;48.726;9.370;2022-11-21T10:53:32;2.57;;;1.00;;
1076;SDS011;64114;48.726;9.370;2022-11-21T10:56:20;3.60;;;1.03;;
1076;SDS011;64114;48.726;9.370;2022-11-21T10:58:50;1.10;;;0.70;;
1076;SDS011;64114;48.726;9.370;2022-11-21T11:01:20;4.33;;;1.23;;
1076;SDS011;64114;48.726;9.370;2022-11-21T11:04:06;2.50;;;0.73;;
1076;SDS011;64114;48.726;9.370;2022-11-21T11:07:12;4.37;;;2.27;;
1076;SDS011;64114;48.726;9.370;2022-11-21T11:09:48;2.70;;;1.20;;
1076;SDS011;64114;48.726;9.370;2022-11-21T11:12:21;4.27;;;1.53;;
1076;SDS011;64114;48.726;9.370;2022-11-21T11:15:19;2.90;;;1.23;;
1076;SDS011;64114;48.726;9.370;2022-11-21T11:17:53;1.70;;;1.20;;
1076;SDS011;64114;48.726;9.370;2022-11-21T11:20:32;0.93;;;0.67;;
1076;SDS011;64114;48.726;9.370;2022-11-21T11:23:16;1.60;;;0.80;;
1076;SDS011;64114;48.726;9.370;2022-11-21T11:25:51;2.30;;;1.00;;
1076;SDS011;64114;48.726;9.370;2022-11-21T11:28:21;2.20;;;1.10;;
1076;SDS011;64114;48.726;9.370;2022-11-21T11:30:50;2.70;;;1.40;;
1076;SDS011;64114;48.726;9.370;2022-11-21T11:33:27;2.40;;;0.90;;
1076;SDS011;64114;48.726;9.370;2022-11-21T11:35:57;1.60;;;0.93;;
1076;SDS011;64114;48.726;9.370;2022-11-21T11:38:40;1.10;;;0.80;;
1076;SDS011;64114;48.726;9.370;2022-11-21T11:41:12;3.33;;;0.80;;
1076;SDS011;64114;48.726;9.370;2022-11-21T11:44:21;1.37;;;0.87;;
1076;SDS011;64114;48.726;9.370;2022-11-21T11:47:16;3.43;;;0.90;;
1076;SDS011;64114;48.726;9.370;2022-11-21T11:49:58;5.13;;;1.20;;
1076;SDS011;64114;48.726;9.370;2022-11-21T11:52:41;0.90;;;0.80;;
1076;SDS011;64114;48.726;9.370;2022-11-21T11:55:17;2.33;;;0.80;;
1076;SDS011;64114;48.726;9.370;2022-11-21T11:57:51;2.67;;;1.00;;
1076;SDS011;64114;48.726;9.370;2022-11-21T12:00:36;3.40;;;1.20;;
1076;SDS011;64114;48.726;9.370;2022-11-21T12:03:10;3.20;;;1.30;;
1076;SDS011;64114;48.726;9.370;2022-11-21T12:05:49;4.13;;;1.10;;
1076;SDS011;64114;48.726;9.370;2022-11-21T12:08:23;2.90;;;0.93;;
1076;SDS011;64114;48.726;9.370;2022-11-21T12:11:10;1.20;;;0.80;;
1076;SDS011;64114;48.726;9.370;2022-11-21T12:14:06;3.40;;;0.83;;
1076;SDS011;64114;48.726;9.370;2022-11-21T12:17:06;2.33;;;0.80;;
1076;SDS011;64114;48.726;9.370;2022-11-21T12:19:36;1.37;;;0.97;;
1076;SDS011;64114;48.726;9.370;2022-11-21T12:22:06;2.20;;;1.20;;
1076;SDS011;64114;48.726;9.370;2022-11-21T12:24:37;3.27;;;1.00;;
1076;SDS011;64114;48.726;9.370;2022-11-21T12:27:15;3.10;;;1.10;;
1076;SDS011;64114;48.726;9.370;2022-11-21T12:29:53;1.77;;;1.50;;
1076;SDS011;64114;48.726;9.370;2022-11-21T12:32:36;1.53;;;0.90;;
1076;SDS011;64114;48.726;9.370;2022-11-21T12:35:19;3.60;;;1.07;;
1076;SDS011;64114;48.726;9.370;2022-11-21T12:38:00;1.27;;;1.23;;
1076;SDS011;64114;48.726;9.370;2022-11-21T12:40:39;2.10;;;0.90;;
1076;SDS011;64114;48.726;9.370;2022-11-21T12:43:17;2.17;;;1.17;;
1076;SDS011;64114;48.726;9.370;2022-11-21T12:45:56;2.00;;;0.90;;
1076;SDS011;64114;48.726;9.370;2022-11-21T12:48:42;2.17;;;1.13;;
1076;SDS011;64114;48.726;9.370;2022-11-21T12:51:44;1.53;;;0.97;;
1076;SDS011;64114;48.726;9.370;2022-11-21T12:57:40;1.40;;;0.90;;
1076;SDS011;64114;48.726;9.370;2022-11-21T13:00:19;1.77;;;1.07;;
1076;SDS011;64114;48.726;9.370;2022-11-21T13:03:02;3.33;;;0.97;;
1076;SDS011;64114;48.726;9.370;2022-11-21T13:05:55;1.07;;;0.97;;
1076;SDS011;64114;48.726;9.370;2022-11-21T13:08:25;2.17;;;1.00;;
1076;SDS011;64114;48.726;9.370;2022-11-21T13:10:57;2.30;;;0.77;;
1076;SDS011;64114;48.726;9.370;2022-11-21T13:13:44;1.27;;;0.60;;
1076;SDS011;64114;48.726;9.370;2022-11-21T13:16:17;2.03;;;1.07;;
1076;SDS011;64114;48.726;9.370;2022-11-21T13:19:03;1.07;;;0.60;;
1076;SDS011;64114;48.726;9.370;2022-11-21T13:21:45;2.93;;;1.07;;
1076;SDS011;64114;48.726;9.370;2022-11-21T13:27:23;1.13;;;0.77;;
1076;SDS011;64114;48.726;9.370;2022-11-21T13:30:15;3.27;;;1.00;;
1076;SDS011;64114;48.726;9.370;2022-11-21T13:32:45;1.97;;;1.00;;
1076;SDS011;64114;48.726;9.370;2022-11-21T13:41:58;1.50;;;0.70;;
1076;SDS011;64114;48.726;9.370;2022-11-21T13:44:46;4.00;;;0.70;;
1076;SDS011;64114;48.726;9.370;2022-11-21T13:50:26;3.97;;;1.10;;
1076;SDS011;64114;48.726;9.370;2022-11-21T13:53:06;3.43;;;1.50;;
1076;SDS011;64114;48.726;9.370;2022-11-21T13:55:54;1.80;;;0.83;;
1076;SDS011;64114;48.726;9.370;2022-11-21T13:58:29;2.63;;;0.90;;
1076;SDS011;64114;48.726;9.370;2022-11-21T14:01:09;1.73;;;0.90;;
1076;SDS011;64114;48.726;9.370;2022-11-21T14:03:53;2.80;;;1.10;;
1076;SDS011;64114;48.726;9.370;2022-11-21T14:06:47;0.90;;;0.80;;
1076;SDS011;64114;48.726;9.370;2022-11-21T14:09:17;3.87;;;1.23;;
1076;SDS011;64114;48.726;9.370;2022-11-21T14:11:48;1.87;;;1.10;;
1076;SDS011;64114;48.726;9.370;2022-11-21T14:14:26;1.33;;;0.90;;
1076;SDS011;64114;48.726;9.370;2022-11-21T14:17:01;1.30;;;0.60;;
1076;SDS011;64114;48.726;9.370;2022-11-21T14:19:39;4.13;;;1.17;;
1076;SDS011;64114;48.726;9.370;2022-11-21T14:22:12;3.07;;;1.83;;
1076;SDS011;64114;48.726;9.370;2022-11-21T14:24:42;2.50;;;1.10;;
1076;SDS011;64114;48.726;9.370;2022-11-21T14:27:15;1.60;;;1.20;;
1076;SDS011;64114;48.726;9.370;2022-11-21T14:29:52;2.70;;;0.80;;
1076;SDS011;64114;48.726;9.370;2022-11-21T14:32:26;3.47;;;1.10;;
1076;SDS011;64114;48.726;9.370;2022-11-21T14:35:08;3.00;;;1.13;;
1076;SDS011;64114;48.726;9.370;2022-11-21T14:37:38;3.17;;;1.30;;
1076;SDS011;64114;48.726;9.370;2022-11-21T14:40:11;2.23;;;0.93;;
1076;SDS011;64114;48.726;9.370;2022-11-21T14:42:40;2.30;;;1.20;;
1076;SDS011;64114;48.726;9.370;2022-11-21T14:45:14;3.13;;;1.40;;
1076;SDS011;64114;48.726;9.370;2022-11-21T14:47:45;8.43;;;1.13;;
1076;SDS011;64114;48.726;9.370;2022-11-21T14:50:22;4.80;;;1.20;;
1076;SDS011;64114;48.726;9.370;2022-11-21T14:52:50;3.50;;;1.40;;
1076;SDS011;64114;48.726;9.370;2022-11-21T14:55:24;2.40;;;1.20;;
1076;SDS011;64114;48.726;9.370;2022-11-21T14:57:57;4.33;;;1.03;;
1076;SDS011;64114;48.726;9.370;2022-11-21T15:00:29;2.83;;;1.33;;
1076;SDS011;64114;48.726;9.370;2022-11-21T15:03:18;4.10;;;0.83;;
1076;SDS011;64114;48.726;9.370;2022-11-21T15:05:48;3.03;;;0.97;;
1076;SDS011;64114;48.726;9.370;2022-11-21T15:08:35;1.47;;;1.00;;
1076;SDS011;64114;48.726;9.370;2022-11-21T15:11:26;1.53;;;1.20;;
1076;SDS011;64114;48.726;9.370;2022-11-21T15:14:00;4.50;;;2.50;;
1076;SDS011;64114;48.726;9.370;2022-11-21T15:16:44;1.20;;;1.07;;
1076;SDS011;64114;48.726;9.370;2022-11-21T15:19:17;8.87;;;1.60;;
1076;SDS011;64114;48.726;9.370;2022-11-21T15:21:47;1.63;;;0.80;;
1076;SDS011;64114;48.726;9.370;2022-11-21T15:24:18;4.50;;;1.40;;
1076;SDS011;64114;48.726;9.370;2022-11-21T15:26:55;2.90;;;1.17;;
1076;SDS011;64114;48.726;9.370;2022-11-21T15:29:22;3.60;;;1.37;;
1076;SDS011;64114;48.726;9.370;2022-11-21T15:34:42;4.47;;;1.20;;
1076;SDS011;64114;48.726;9.370;2022-11-21T15:37:11;3.03;;;1.53;;
1076;SDS011;64114;48.726;9.370;2022-11-21T15:39:41;5.63;;;1.30;;
1076;SDS011;64114;48.726;9.370;2022-11-21T15:45:19;1.63;;;1.13;;
1076;SDS011;64114;48.726;9.370;2022-11-21T15:47:52;1.23;;;1.17;;
1076;SDS011;64114;48.726;9.370;2022-11-21T15:53:40;2.33;;;1.30;;
1076;SDS011;64114;48.726;9.370;2022-11-21T15:56:09;2.73;;;1.50;;
1076;SDS011;64114;48.726;9.370;2022-11-21T15:58:47;7.63;;;1.70;;
1076;SDS011;64114;48.726;9.370;2022-11-21T16:01:17;4.13;;;1.60;;